Time;durP1;ratioP1;P1;durP2;ratioP2;P2;SDS_P1;SDS_P2;PMS_P1;PMS_P2;Temp;Humidity;BMP_temperature;BMP_pressure;BME280_temperature;BME280_humidity;BME280_pressure;Samples;Min_cycle;Max_cycle;Signal;HPM_P1;HPM_P2
2023/10/16 00:01:38;;;;;;;0.00;0.00;;;;;;;17.26;52.93;102508.59;5074421;28;20036;-67
2023/10/16 00:04:06;;;;;;;0.23;0.23;;;;;;;17.37;53.11;102506.69;5088777;28;20390;-68
2023/10/16 00:06:34;;;;;;;0.00;0.00;;;;;;;17.33;54.14;102504.97;5092111;28;20033;-67
2023/10/16 00:09:10;;;;;;;0.20;0.20;;;;;;;17.44;53.15;102511.00;5091622;28;20402;-68
2023/10/16 00:11:37;;;;;;;0.60;0.60;;;;;;;17.19;51.89;102506.91;5090865;28;20024;-68
2023/10/16 00:14:14;;;;;;;0.00;0.00;;;;;;;17.79;52.63;102504.38;5083186;28;20067;-67
2023/10/16 00:16:39;;;;;;;0.00;0.00;;;;;;;17.70;52.56;102504.50;5071125;28;20239;-68
2023/10/16 00:19:09;;;;;;;0.33;0.33;;;;;;;17.59;53.13;102506.44;5091349;28;20020;-68
2023/10/16 00:21:43;;;;;;;0.10;0.10;;;;;;;17.58;52.40;102505.53;5091542;28;20081;-68
2023/10/16 00:24:12;;;;;;;0.10;0.10;;;;;;;17.97;51.51;102507.72;5091303;28;20038;-68
2023/10/16 00:26:42;;;;;;;0.00;0.00;;;;;;;16.77;52.15;102510.81;5085103;28;20507;-67
2023/10/16 00:29:17;;;;;;;0.00;0.00;;;;;;;17.64;51.40;102510.75;5071089;28;20549;-68
2023/10/16 00:31:51;;;;;;;0.20;0.20;;;;;;;16.81;51.83;102513.44;5070673;28;20394;-68
2023/10/16 00:34:21;;;;;;;0.00;0.00;;;;;;;17.38;52.30;102513.72;5072434;28;20020;-67
2023/10/16 00:36:53;;;;;;;0.10;0.10;;;;;;;17.54;52.91;102508.25;5071528;28;20044;-68
2023/10/16 00:39:20;;;;;;;0.00;0.00;;;;;;;17.25;52.17;102506.84;5070017;28;20063;-67
2023/10/16 00:41:50;;;;;;;0.00;0.00;;;;;;;17.16;52.25;102506.94;5081721;28;20389;-68
2023/10/16 00:44:18;;;;;;;0.00;0.00;;;;;;;17.79;51.07;102511.44;5074723;28;20119;-68
2023/10/16 00:46:48;;;;;;;0.00;0.00;;;;;;;17.97;50.71;102503.28;5094096;28;20023;-67
2023/10/16 00:49:18;;;;;;;0.03;0.03;;;;;;;17.52;51.40;102504.75;5090238;28;20562;-68
2023/10/16 00:51:45;;;;;;;0.17;0.17;;;;;;;17.63;50.61;102502.84;5084908;28;20102;-67
2023/10/16 00:54:18;;;;;;;0.00;0.00;;;;;;;16.99;53.38;102500.06;5087657;28;20054;-68
2023/10/16 00:56:51;;;;;;;0.00;0.00;;;;;;;16.74;53.81;102494.97;5085055;28;20030;-67
2023/10/16 00:59:16;;;;;;;0.20;0.20;;;;;;;17.31;52.22;102488.28;5073846;28;20055;-68
2023/10/16 01:01:44;;;;;;;0.00;0.00;;;;;;;16.40;54.23;102479.47;5097062;28;20083;-68
2023/10/16 01:04:10;;;;;;;0.00;0.00;;;;;;;16.79;54.03;102477.34;5094442;28;20117;-68
2023/10/16 01:06:36;;;;;;;0.13;0.13;;;;;;;16.38;52.89;102481.22;5093451;28;20396;-67
2023/10/16 01:09:08;;;;;;;1.03;1.03;;;;;;;15.49;56.57;102465.97;5111977;28;20466;-67
2023/10/16 01:11:37;;;;;;;0.00;0.00;;;;;;;15.23;58.51;102472.19;5082460;28;20019;-67
2023/10/16 01:14:03;;;;;;;0.00;0.00;;;;;;;14.62;59.47;102476.69;5073926;28;20024;-67
2023/10/16 01:16:29;;;;;;;0.00;0.00;;;;;;;15.66;57.41;102474.66;5112210;28;20031;-67
2023/10/16 01:18:59;;;;;;;0.00;0.00;;;;;;;15.94;56.40;102469.25;5082981;28;20503;-67
2023/10/16 01:21:25;;;;;;;0.00;0.00;;;;;;;15.63;55.32;102469.38;5089023;28;20042;-67
2023/10/16 01:23:51;;;;;;;0.67;0.40;;;;;;;15.70;55.28;102471.13;5079013;28;20040;-68
2023/10/16 01:26:16;;;;;;;2.33;1.93;;;;;;;16.06;54.23;102466.53;5084543;28;20506;-67
2023/10/16 01:28:42;;;;;;;0.20;0.20;;;;;;;16.33;53.30;102466.34;5100951;28;20536;-68
2023/10/16 01:31:07;;;;;;;0.00;0.00;;;;;;;15.81;54.81;102473.69;5091274;28;20077;-68
2023/10/16 01:33:33;;;;;;;0.10;0.10;;;;;;;16.50;52.42;102466.16;5072984;28;20062;-67
2023/10/16 01:35:58;;;;;;;0.00;0.00;;;;;;;16.57;52.88;102462.63;5072523;28;20032;-67
2023/10/16 01:38:27;;;;;;;0.00;0.00;;;;;;;16.24;53.53;102462.00;5091191;28;20105;-68
2023/10/16 01:43:28;;;;;;;0.00;0.00;;;;;;;16.65;52.58;102468.69;5091897;28;20050;-68
2023/10/16 01:45:55;;;;;;;0.10;0.10;;;;;;;16.63;52.06;102459.91;5075942;28;20031;-67
2023/10/16 01:48:21;;;;;;;0.00;0.00;;;;;;;16.45;52.20;102461.81;5107896;28;20034;-68
2023/10/16 01:50:56;;;;;;;0.10;0.10;;;;;;;16.57;52.39;102460.84;5091294;28;20402;-67
2023/10/16 01:53:25;;;;;;;0.03;0.03;;;;;;;16.44;54.17;102462.72;5075732;28;20110;-68
2023/10/16 01:55:54;;;;;;;0.00;0.00;;;;;;;16.65;53.08;102466.06;5072395;28;20040;-68
2023/10/16 01:58:23;;;;;;;0.00;0.00;;;;;;;16.55;54.27;102465.25;5092266;28;20076;-68
2023/10/16 02:00:52;;;;;;;0.00;0.00;;;;;;;16.83;52.07;102450.91;5074828;28;20036;-68
2023/10/16 02:03:18;;;;;;;4.53;1.30;;;;;;;16.75;52.03;102454.50;5090627;28;20081;-68
2023/10/16 02:05:46;;;;;;;0.00;0.00;;;;;;;16.70;51.25;102451.03;5072265;28;20028;-68
2023/10/16 02:08:15;;;;;;;0.20;0.17;;;;;;;16.92;51.46;102456.13;5072237;28;20027;-68
2023/10/16 02:10:44;;;;;;;0.00;0.00;;;;;;;16.68;52.06;102450.19;5072210;28;20024;-68
2023/10/16 02:13:10;;;;;;;0.20;0.20;;;;;;;16.73;51.42;102456.28;5072361;28;20371;-68
2023/10/16 02:15:36;;;;;;;0.00;0.00;;;;;;;16.59;52.07;102448.47;5085953;28;20501;-68
2023/10/16 02:18:06;;;;;;;0.00;0.00;;;;;;;16.83;51.33;102450.91;5078730;28;20024;-68
2023/10/16 02:20:36;;;;;;;0.00;0.00;;;;;;;16.66;53.23;102449.31;5089892;28;20028;-68
2023/10/16 02:23:03;;;;;;;0.00;0.00;;;;;;;16.61;53.22;102445.84;5071495;28;20027;-68
2023/10/16 02:25:29;;;;;;;0.00;0.00;;;;;;;16.64;53.46;102440.53;5090309;28;20043;-68
2023/10/16 02:27:54;;;;;;;0.00;0.00;;;;;;;16.68;53.27;102447.53;5072165;28;20047;-68
2023/10/16 02:32:53;;;;;;;0.00;0.00;;;;;;;16.28;53.44;102443.50;5111444;28;20032;-68
2023/10/16 02:35:19;;;;;;;0.67;0.67;;;;;;;16.49;53.02;102438.06;5081838;28;20020;-68
2023/10/16 02:37:46;;;;;;;0.00;0.00;;;;;;;16.62;53.24;102437.03;5089141;28;20480;-67
2023/10/16 02:40:17;;;;;;;0.00;0.00;;;;;;;16.88;51.49;102433.25;5071679;28;20119;-68
2023/10/16 02:42:43;;;;;;;0.10;0.10;;;;;;;16.56;51.58;102423.91;5072104;28;20040;-68
2023/10/16 02:45:24;;;;;;;0.00;0.00;;;;;;;16.87;51.18;102432.38;5075256;28;20122;-68
2023/10/16 02:47:49;;;;;;;0.00;0.00;;;;;;;16.67;51.61;102440.50;5073034;28;20035;-68
2023/10/16 02:50:15;;;;;;;3.83;0.47;;;;;;;16.95;50.90;102434.94;5071894;28;20020;-68
2023/10/16 02:52:40;;;;;;;0.00;0.00;;;;;;;16.53;51.84;102437.13;5077112;28;20111;-68
2023/10/16 02:55:06;;;;;;;0.00;0.00;;;;;;;16.49;52.31;102438.06;5071534;28;20016;-68
2023/10/16 02:57:32;;;;;;;0.00;0.00;;;;;;;16.49;51.95;102431.00;5090612;28;20427;-68
2023/10/16 02:59:58;;;;;;;0.00;0.00;;;;;;;16.38;52.49;102431.09;5097051;28;20024;-68
2023/10/16 03:02:25;;;;;;;0.00;0.00;;;;;;;16.41;52.94;102428.41;5100793;28;20042;-68
2023/10/16 03:05:02;;;;;;;0.00;0.00;;;;;;;16.56;51.12;102415.97;5092420;28;20076;-68
2023/10/16 03:07:28;;;;;;;0.00;0.00;;;;;;;16.79;51.11;102421.03;5110871;28;20117;-68
2023/10/16 03:09:55;;;;;;;0.57;0.43;;;;;;;16.71;51.63;102422.88;5110130;28;20122;-68
2023/10/16 03:12:21;;;;;;;0.10;0.10;;;;;;;16.77;50.56;102415.78;5078770;28;20027;-67
2023/10/16 03:14:49;;;;;;;0.00;0.00;;;;;;;16.47;51.60;102416.06;5077002;28;20024;-67
2023/10/16 03:17:36;;;;;;;0.13;0.13;;;;;;;16.38;52.85;102417.91;5078103;28;20043;-68
2023/10/16 03:20:08;;;;;;;0.00;0.00;;;;;;;16.29;53.16;102417.97;5109402;28;20459;-68
2023/10/16 03:22:33;;;;;;;0.10;0.10;;;;;;;16.32;53.76;102415.34;5092333;28;20056;-67
2023/10/16 03:24:59;;;;;;;0.00;0.00;;;;;;;16.56;52.79;102415.97;5098029;28;20502;-68
2023/10/16 03:27:31;;;;;;;0.10;0.10;;;;;;;16.53;52.76;102416.03;5071265;28;20020;-68
2023/10/16 03:29:57;;;;;;;0.00;0.00;;;;;;;16.44;53.57;102412.59;5074991;28;20113;-68
2023/10/16 03:32:23;;;;;;;0.00;0.00;;;;;;;16.27;52.95;102415.34;5077335;28;20024;-68
2023/10/16 03:34:50;;;;;;;0.00;0.00;;;;;;;16.54;52.82;102415.09;5091810;28;20024;-68
2023/10/16 03:37:16;;;;;;;0.00;0.00;;;;;;;16.36;52.78;102424.06;5075120;28;20038;-68
2023/10/16 03:39:42;;;;;;;0.00;0.00;;;;;;;16.40;52.94;102420.53;5075825;28;20445;-67
2023/10/16 03:42:09;;;;;;;0.00;0.00;;;;;;;16.84;52.56;102421.81;5075695;28;20451;-67
2023/10/16 03:44:38;;;;;;;0.00;0.00;;;;;;;16.67;53.30;102423.78;5075315;28;20028;-69
2023/10/16 03:47:07;;;;;;;0.00;0.00;;;;;;;16.48;53.06;102428.38;5075331;28;20112;-67
2023/10/16 03:49:33;;;;;;;0.00;0.00;;;;;;;16.71;53.29;102421.09;5085567;28;20015;-68
2023/10/16 03:51:58;;;;;;;0.10;0.10;;;;;;;17.08;52.91;102415.44;5113424;28;20100;-68
2023/10/16 03:54:35;;;;;;;0.30;0.30;;;;;;;17.05;52.31;102418.13;5093828;28;20058;-68
2023/10/16 03:57:01;;;;;;;0.10;0.10;;;;;;;17.02;52.06;102415.53;5076641;28;20483;-68
2023/10/16 03:59:30;;;;;;;0.00;0.00;;;;;;;17.12;52.09;102417.13;5074828;28;20073;-68
2023/10/16 04:01:56;;;;;;;0.00;0.00;;;;;;;17.03;52.05;102411.97;5073470;28;20027;-68
2023/10/16 04:04:25;;;;;;;0.00;0.00;;;;;;;17.05;52.16;102407.56;5107221;28;20389;-68
2023/10/16 04:06:56;;;;;;;0.00;0.00;;;;;;;17.44;50.85;102415.84;5076778;28;20069;-68
2023/10/16 04:09:22;;;;;;;0.00;0.00;;;;;;;17.19;51.98;102411.81;5074828;28;20024;-68
2023/10/16 04:11:54;;;;;;;0.00;0.00;;;;;;;17.28;51.72;102411.66;5073312;28;20028;-68
2023/10/16 04:14:27;;;;;;;1.45;0.40;;;;;;;17.50;51.82;102416.66;5104652;28;20084;-68
2023/10/16 04:16:55;;;;;;;0.00;0.00;;;;;;;17.48;51.57;102408.75;5079650;28;20036;-68
2023/10/16 04:21:51;;;;;;;0.00;0.00;;;;;;;17.41;50.70;102400.03;5113361;28;20040;-68
2023/10/16 04:25:02;;;;;;;0.00;0.00;;;;;;;17.22;51.37;102402.03;5113120;28;20084;-68
2023/10/16 04:34:54;;;;;;;0.00;0.00;;;;;;;16.78;52.09;102401.66;5092983;28;20040;-68
2023/10/16 04:37:31;;;;;;;0.00;0.00;;;;;;;16.88;52.16;102391.00;5078538;28;20111;-68
2023/10/16 04:50:30;;;;;;;0.07;0.07;;;;;;;17.64;50.84;102390.91;5106907;28;20032;-68
2023/10/16 05:01:32;;;;;;;0.00;0.00;;;;;;;17.26;51.36;102387.03;5090079;28;20398;-68
2023/10/16 05:15:20;;;;;;;0.00;0.00;;;;;;;17.06;51.33;102369.69;5090812;28;20118;-68
2023/10/16 05:17:22;;;;;;;0.00;0.00;;;;;;;17.49;51.73;102372.59;5091575;28;20028;-67
2023/10/16 05:20:13;;;;;;;8.20;1.37;;;;;;;17.32;51.94;102371.09;5073488;28;20036;-68
2023/10/16 06:14:34;;;;;;;0.00;0.00;;;;;;;17.48;52.30;102386.75;5089319;28;20477;-68
2023/10/16 06:17:00;;;;;;;0.15;0.10;;;;;;;17.40;52.41;102379.78;5091329;28;20038;-68
2023/10/16 06:19:25;;;;;;;0.07;0.07;;;;;;;17.01;53.08;102381.16;5107635;28;20032;-68
2023/10/16 06:22:06;;;;;;;2.30;2.00;;;;;;;17.30;52.51;102391.38;5099967;28;20042;-68
2023/10/16 06:24:47;;;;;;;0.00;0.00;;;;;;;17.12;52.47;102388.09;5088208;28;20024;-68
2023/10/16 06:27:19;;;;;;;0.00;0.00;;;;;;;17.34;52.26;102385.16;5072654;28;20510;-68
2023/10/16 06:29:51;;;;;;;0.00;0.00;;;;;;;16.78;53.20;102385.81;5090803;28;20085;-68
2023/10/16 06:32:20;;;;;;;0.35;0.20;;;;;;;17.29;52.62;102387.00;5071459;28;20031;-68
2023/10/16 06:34:51;;;;;;;0.13;0.13;;;;;;;17.05;53.46;102386.41;5092995;28;20494;-68
2023/10/16 06:37:18;;;;;;;0.00;0.00;;;;;;;17.28;52.49;102385.22;5073172;28;20024;-67
2023/10/16 06:39:54;;;;;;;27.73;0.83;;;;;;;17.21;52.21;102394.16;5073953;28;20111;-69
2023/10/16 06:42:20;;;;;;;0.40;0.40;;;;;;;17.61;52.31;102386.53;5072233;28;20040;-69
2023/10/16 06:44:54;;;;;;;0.00;0.00;;;;;;;17.27;53.33;102402.00;5057613;28;20028;-69
2023/10/16 06:47:34;;;;;;;0.00;0.00;;;;;;;17.54;53.21;102399.84;5072920;28;20024;-69
2023/10/16 06:52:47;;;;;;;0.87;0.30;;;;;;;17.45;52.93;102404.38;5098749;28;20043;-69
2023/10/16 06:55:13;;;;;;;0.00;0.00;;;;;;;17.58;52.81;102396.28;5095437;28;20467;-70
2023/10/16 06:57:39;;;;;;;0.03;0.03;;;;;;;17.71;52.71;102403.13;5070932;28;20425;-69
2023/10/16 07:00:08;;;;;;;0.00;0.00;;;;;;;17.66;53.15;102404.97;5090052;28;20067;-69
2023/10/16 07:02:35;;;;;;;0.00;0.00;;;;;;;17.85;53.01;102408.22;5085596;28;20012;-69
2023/10/16 07:05:05;;;;;;;0.30;0.30;;;;;;;18.12;52.09;102404.28;5094019;28;20027;-69
2023/10/16 07:07:30;;;;;;;0.13;0.13;;;;;;;17.99;52.62;102410.66;5107983;28;20067;-69
2023/10/16 07:09:56;;;;;;;0.10;0.10;;;;;;;18.00;52.56;102406.25;5093352;28;20038;-69
2023/10/16 07:12:22;;;;;;;0.87;0.67;;;;;;;18.20;52.60;102405.91;5084396;28;20024;-69
2023/10/16 07:15:01;;;;;;;0.13;0.13;;;;;;;18.53;51.49;102406.22;5075516;28;20433;-69
2023/10/16 07:17:30;;;;;;;0.00;0.00;;;;;;;18.45;51.49;102403.69;5079498;28;20068;-69
2023/10/16 07:19:59;;;;;;;0.00;0.00;;;;;;;17.99;52.08;102400.09;5092613;28;20023;-69
2023/10/16 07:22:31;;;;;;;0.00;0.00;;;;;;;17.54;53.34;102402.50;5108068;28;20141;-68
2023/10/16 07:24:57;;;;;;;0.00;0.00;;;;;;;17.89;53.19;102398.47;5090447;28;20015;-69
2023/10/16 07:27:23;;;;;;;0.00;0.00;;;;;;;17.89;53.23;102398.47;5095303;28;20574;-68
2023/10/16 07:29:49;;;;;;;0.00;0.00;;;;;;;17.95;53.17;102393.09;5078867;28;20537;-69
2023/10/16 07:32:14;;;;;;;0.00;0.00;;;;;;;18.36;52.62;102394.16;5092246;28;20020;-68
2023/10/16 07:34:40;;;;;;;0.00;0.00;;;;;;;18.70;51.87;102393.53;5093957;28;20397;-69
2023/10/16 07:37:07;;;;;;;0.00;0.00;;;;;;;18.84;51.39;102400.34;5096306;28;20028;-69
2023/10/16 07:39:33;;;;;;;0.00;0.00;;;;;;;18.68;50.98;102397.13;5076560;28;20024;-69
2023/10/16 07:42:01;;;;;;;0.00;0.00;;;;;;;19.26;51.26;102387.13;5091968;28;20048;-69
2023/10/16 07:44:28;;;;;;;0.00;0.00;;;;;;;19.27;50.73;102394.16;5104986;28;20026;-69
2023/10/16 07:46:53;;;;;;;0.10;0.10;;;;;;;19.30;50.97;102391.44;5094790;28;20043;-69
2023/10/16 07:49:25;;;;;;;0.10;0.10;;;;;;;19.01;51.77;102392.94;5093826;28;20050;-68
2023/10/16 07:51:52;;;;;;;0.00;0.00;;;;;;;19.18;52.28;102397.00;5094811;28;20019;-68
2023/10/16 07:54:20;;;;;;;0.00;0.00;;;;;;;19.13;51.39;102399.78;5076168;28;20055;-68
2023/10/16 07:56:46;;;;;;;0.43;0.43;;;;;;;19.02;51.05;102400.00;5074609;28;20056;-68
2023/10/16 07:59:18;;;;;;;0.00;0.00;;;;;;;19.24;51.21;102399.56;5112464;28;20172;-68
2023/10/16 08:01:52;;;;;;;0.15;0.15;;;;;;;19.43;50.71;102406.19;5081636;28;20028;-68
2023/10/16 08:07:04;;;;;;;0.00;0.00;;;;;;;19.60;50.73;102402.28;5093866;28;20115;-68
2023/10/16 08:09:48;;;;;;;0.00;0.00;;;;;;;19.48;50.97;102409.63;5064459;28;20023;-68
2023/10/16 08:12:34;;;;;;;0.00;0.00;;;;;;;19.70;51.01;102406.47;5056589;28;20016;-68
2023/10/16 08:15:03;;;;;;;0.37;0.37;;;;;;;19.76;50.92;102408.97;5083763;28;20043;-68
2023/10/16 08:17:32;;;;;;;0.00;0.00;;;;;;;19.64;50.53;102398.66;5090927;28;20570;-68
2023/10/16 08:19:58;;;;;;;0.00;0.00;;;;;;;19.44;50.76;102407.03;5097957;28;20028;-68
2023/10/16 08:22:25;;;;;;;0.10;0.10;;;;;;;19.61;51.50;102404.03;5093059;28;20027;-68
2023/10/16 08:25:04;;;;;;;0.70;0.70;;;;;;;19.99;51.16;102399.63;5093420;28;20031;-68
2023/10/16 08:27:49;;;;;;;0.20;0.20;;;;;;;19.80;50.19;102400.06;5092508;28;20056;-68
2023/10/16 08:30:18;;;;;;;0.00;0.00;;;;;;;20.29;50.33;102402.38;5097386;28;20032;-68
2023/10/16 08:35:17;;;;;;;0.00;0.00;;;;;;;20.13;49.62;102408.09;5072954;27;20035;-68
2023/10/16 08:37:43;;;;;;;0.00;0.00;;;;;;;19.58;51.36;102409.41;5074779;28;20032;-68
2023/10/16 08:40:57;;;;;;;0.25;0.15;;;;;;;19.10;51.72;102403.34;5111601;27;20022;-68
2023/10/16 08:43:04;;;;;;;0.00;0.00;;;;;;;19.55;51.92;102404.16;5112282;27;20073;-69
2023/10/16 08:45:32;;;;;;;0.00;0.00;;;;;;;20.14;50.47;102399.22;5079153;28;20118;-69
2023/10/16 08:47:58;;;;;;;0.00;0.00;;;;;;;20.41;49.23;102402.06;5104715;28;20131;-69
2023/10/16 08:50:42;;;;;;;0.00;0.00;;;;;;;19.98;49.82;102397.88;5095662;28;20147;-70
2023/10/16 08:53:45;;;;;;;0.08;0.08;;;;;;;20.88;49.38;102395.50;5080782;28;20037;-69
2023/10/16 08:56:08;;;;;;;0.00;0.00;;;;;;;21.15;49.10;102399.16;5097646;28;20047;-69
2023/10/16 08:58:39;;;;;;;0.88;0.40;;;;;;;20.71;49.07;102396.88;5075199;28;20042;-69
2023/10/16 09:01:07;;;;;;;0.00;0.00;;;;;;;21.16;48.33;102401.75;5089238;28;20449;-69
2023/10/16 09:03:39;;;;;;;0.03;0.03;;;;;;;19.72;50.84;102402.00;5072447;28;20097;-69
2023/10/16 09:06:05;;;;;;;0.00;0.00;;;;;;;19.70;51.47;102398.50;5091472;28;20161;-69
2023/10/16 09:08:33;;;;;;;0.00;0.00;;;;;;;20.34;50.77;102405.78;5110264;28;20024;-70
2023/10/16 09:11:05;;;;;;;0.00;0.00;;;;;;;20.19;49.24;102412.38;5087833;28;20417;-69
2023/10/16 09:13:35;;;;;;;;;;;;;;;20.62;48.79;102399.75;5079969;28;20139;-69
2023/10/16 09:16:01;;;;;;;0.00;0.00;;;;;;;20.33;47.66;102398.75;5076270;28;20402;-69
2023/10/16 09:18:27;;;;;;;0.00;0.00;;;;;;;20.19;49.66;102406.19;5083517;28;20027;-69
2023/10/16 09:20:56;;;;;;;0.35;0.22;;;;;;;19.98;50.61;102404.03;5089882;28;20797;-69
2023/10/16 09:23:23;;;;;;;0.00;0.00;;;;;;;19.39;49.33;102401.84;5082909;28;20032;-70
2023/10/16 09:25:55;;;;;;;0.00;0.00;;;;;;;20.06;50.07;102395.91;5072032;28;20056;-69
2023/10/16 09:28:20;;;;;;;0.00;0.00;;;;;;;20.75;48.39;102398.53;5092947;28;20031;-69
2023/10/16 09:30:47;;;;;;;0.65;0.65;;;;;;;20.92;47.53;102398.03;5092357;28;20113;-69
2023/10/16 09:33:14;;;;;;;0.00;0.00;;;;;;;20.46;48.93;102394.84;5095065;28;20034;-69
2023/10/16 09:35:45;;;;;;;0.10;0.10;;;;;;;19.24;49.38;102400.41;5095773;28;20024;-69
2023/10/16 09:38:17;;;;;;;0.00;0.00;;;;;;;20.76;48.59;102391.41;5076309;28;20038;-69
2023/10/16 09:40:58;;;;;;;0.00;0.00;;;;;;;20.88;46.36;102390.19;5097307;28;20028;-70
2023/10/16 09:43:27;;;;;;;0.08;0.08;;;;;;;20.32;47.41;102389.91;5096522;28;20066;-69
2023/10/16 09:48:39;;;;;;;0.00;0.00;;;;;;;21.52;45.23;102385.63;5095804;28;20104;-70
2023/10/16 09:51:09;;;;;;;0.00;0.00;;;;;;;21.25;46.31;102376.69;5071881;28;20096;-69
2023/10/16 09:53:35;;;;;;;0.03;0.03;;;;;;;21.11;46.48;102382.41;5074204;28;20493;-70
2023/10/16 09:56:02;;;;;;;0.10;0.10;;;;;;;20.42;47.86;102382.56;5100538;28;20028;-70
2023/10/16 09:58:34;;;;;;;4.68;1.02;;;;;;;19.83;48.16;102384.06;5077178;28;20024;-69
2023/10/16 10:01:09;;;;;;;0.00;0.00;;;;;;;20.96;47.08;102377.56;5074947;28;20032;-69
2023/10/16 10:03:36;;;;;;;0.00;0.00;;;;;;;20.42;47.49;102385.22;5071748;28;20445;-69
2023/10/16 10:06:08;;;;;;;0.00;0.00;;;;;;;21.28;44.41;102384.59;5081379;28;20043;-70
2023/10/16 10:08:53;;;;;;;0.00;0.00;;;;;;;20.26;45.41;102381.22;5076747;28;20019;-69
2023/10/16 10:11:38;;;;;;;0.00;0.00;;;;;;;20.98;44.44;102381.06;5075047;28;20081;-69
2023/10/16 10:14:20;;;;;;;0.00;0.00;;;;;;;20.88;44.25;102377.78;5071584;28;20047;-70
2023/10/16 10:16:49;;;;;;;0.00;0.00;;;;;;;21.01;44.01;102373.00;5089831;28;20028;-69
2023/10/16 10:19:31;;;;;;;0.00;0.00;;;;;;;22.05;44.10;102386.59;5078994;28;20557;-70
2023/10/16 10:22:05;;;;;;;0.00;0.00;;;;;;;21.31;43.90;102386.28;5074417;28;20024;-70
2023/10/16 10:24:35;;;;;;;0.00;0.00;;;;;;;21.33;43.21;102379.13;5095727;28;20042;-69
2023/10/16 10:27:05;;;;;;;0.00;0.00;;;;;;;21.81;42.50;102378.50;5089211;28;20437;-70
2023/10/16 10:29:30;;;;;;;0.10;0.10;;;;;;;21.81;43.96;102383.81;5091834;28;20027;-69
2023/10/16 10:32:06;;;;;;;2.58;0.40;;;;;;;22.57;41.78;102377.72;5080623;28;20532;-70
2023/10/16 10:34:31;;;;;;;0.68;0.50;;;;;;;22.30;42.42;102369.78;5085883;28;20398;-70
2023/10/16 10:37:00;;;;;;;2.75;0.70;;;;;;;22.36;41.35;102378.41;5091112;28;20034;-70
2023/10/16 10:39:38;;;;;;;1.23;0.30;;;;;;;22.42;41.60;102380.03;5089882;28;20120;-70
2023/10/16 10:42:04;;;;;;;0.80;0.40;;;;;;;22.09;40.75;102382.91;5055183;28;20071;-70
2023/10/16 10:44:31;;;;;;;1.58;0.40;;;;;;;21.61;42.28;102378.25;5051907;28;20036;-70
2023/10/16 10:47:00;;;;;;;4.47;0.63;;;;;;;21.76;42.97;102391.09;5048270;28;20067;-70
2023/10/16 10:49:35;;;;;;;3.10;0.40;;;;;;;22.16;39.86;102373.78;5046730;28;20128;-70
2023/10/16 10:52:05;;;;;;;2.05;0.30;;;;;;;21.15;41.96;102384.06;5059142;28;20071;-70
2023/10/16 10:54:31;;;;;;;1.15;0.30;;;;;;;22.08;40.16;102375.84;5060761;28;20044;-70
2023/10/16 10:57:06;;;;;;;2.30;0.60;;;;;;;22.04;40.80;102379.53;5064712;28;20029;-70
2023/10/16 10:59:39;;;;;;;0.40;0.25;;;;;;;22.24;40.27;102380.63;5050342;28;20431;-70
2023/10/16 11:04:47;;;;;;;3.75;0.52;;;;;;;22.46;39.60;102371.00;5062890;28;20115;-70
2023/10/16 11:07:23;;;;;;;3.80;0.40;;;;;;;22.25;39.66;102372.56;5051973;28;20039;-70
2023/10/16 11:09:49;;;;;;;2.60;0.38;;;;;;;22.19;39.47;102368.34;5056627;28;20031;-70
2023/10/16 11:12:14;;;;;;;0.95;0.30;;;;;;;21.57;38.05;102374.84;5054763;28;20028;-69
2023/10/16 11:14:40;;;;;;;0.82;0.20;;;;;;;21.59;39.05;102364.16;5047040;28;20168;-70
2023/10/16 11:17:06;;;;;;;0.85;0.40;;;;;;;22.22;38.37;102366.50;5052537;28;20028;-70
2023/10/16 11:19:48;;;;;;;2.05;0.30;;;;;;;21.42;37.92;102369.97;5051632;28;20028;-69
2023/10/16 11:22:27;;;;;;;0.57;0.27;;;;;;;22.43;36.76;102357.75;5046249;28;20021;-70
2023/10/16 11:24:53;;;;;;;3.97;0.90;;;;;;;22.73;37.01;102354.91;5055271;28;20354;-70
2023/10/16 11:27:19;;;;;;;1.08;0.32;;;;;;;22.56;37.76;102357.31;5068839;28;20028;-70
2023/10/16 11:29:46;;;;;;;0.45;0.20;;;;;;;22.34;38.88;102350.13;5064633;28;20038;-70
2023/10/16 11:32:15;;;;;;;2.15;0.40;;;;;;;22.41;37.49;102346.31;5064580;28;20020;-70
2023/10/16 11:34:42;;;;;;;0.47;0.38;;;;;;;22.71;36.90;102343.44;5054109;28;20021;-70
2023/10/16 11:37:12;;;;;;;2.70;0.13;;;;;;;22.41;36.34;102346.31;5056595;28;20139;-70
2023/10/16 11:39:38;;;;;;;1.25;0.40;;;;;;;21.63;37.33;102353.34;5060358;28;20024;-70
2023/10/16 11:42:04;;;;;;;1.02;0.47;;;;;;;21.90;37.28;102339.19;5079013;28;20101;-70
2023/10/16 11:44:32;;;;;;;1.88;0.38;;;;;;;21.98;37.46;102330.03;5081117;28;20027;-70
2023/10/16 11:47:01;;;;;;;1.05;0.25;;;;;;;22.35;37.54;102325.22;5072471;28;20055;-70
2023/10/16 11:49:31;;;;;;;2.08;0.55;;;;;;;22.40;37.25;102333.91;5072967;28;20488;-70
2023/10/16 11:52:21;;;;;;;5.32;0.52;;;;;;;22.88;36.91;102329.47;5084125;28;20048;-70
2023/10/16 11:54:48;;;;;;;4.70;0.32;;;;;;;22.41;37.09;102327.66;5075238;28;20020;-70
2023/10/16 11:57:14;;;;;;;0.70;0.65;;;;;;;22.60;38.31;102319.88;5072921;28;20086;-70
2023/10/16 11:59:40;;;;;;;1.48;0.30;;;;;;;22.18;38.79;102313.34;5070351;28;20479;-70
2023/10/16 12:02:12;;;;;;;0.68;0.30;;;;;;;22.62;38.52;102312.66;5089069;28;20012;-69
2023/10/16 12:04:40;;;;;;;1.42;0.30;;;;;;;22.49;37.52;102317.59;5079182;28;20451;-70
2023/10/16 12:07:07;;;;;;;2.10;0.50;;;;;;;22.79;36.81;102309.38;5070574;28;20081;-70
2023/10/16 12:09:42;;;;;;;1.65;0.32;;;;;;;22.62;36.96;102311.81;5080227;28;20028;-70
2023/10/16 12:12:17;;;;;;;2.92;0.52;;;;;;;22.26;37.50;102310.41;5074621;28;20383;-70
2023/10/16 12:14:44;;;;;;;1.08;0.65;;;;;;;23.12;36.37;102301.03;5072841;28;20020;-70
2023/10/16 12:17:12;;;;;;;0.77;0.35;;;;;;;22.94;35.94;102304.38;5070889;28;20192;-70
2023/10/16 12:19:38;;;;;;;0.32;0.22;;;;;;;22.96;36.36;102306.06;5071235;28;20407;-70
2023/10/16 12:22:03;;;;;;;2.75;0.55;;;;;;;23.45;35.64;102305.03;5071911;28;20089;-70
2023/10/16 12:24:29;;;;;;;1.13;0.68;;;;;;;23.04;36.51;102295.09;5071028;28;20111;-70
2023/10/16 12:26:55;;;;;;;2.63;0.57;;;;;;;22.94;36.89;102301.72;5070532;28;20039;-70
2023/10/16 12:29:20;;;;;;;2.22;0.50;;;;;;;22.98;35.06;102298.00;5078630;28;20027;-70
2023/10/16 12:31:45;;;;;;;1.75;0.45;;;;;;;23.19;36.38;102297.19;5081194;28;20479;-70
2023/10/16 12:34:11;;;;;;;2.45;0.77;;;;;;;23.35;36.92;102291.22;5071592;28;20047;-70
2023/10/16 12:36:42;;;;;;;1.10;0.30;;;;;;;22.90;35.05;102284.94;5084396;28;20067;-70
2023/10/16 12:39:16;;;;;;;1.55;0.30;;;;;;;23.24;35.74;102282.78;5071507;28;20039;-70
2023/10/16 12:41:41;;;;;;;1.85;0.30;;;;;;;22.47;36.78;102278.63;5070099;28;20468;-70
2023/10/16 12:44:09;;;;;;;3.20;0.30;;;;;;;22.65;37.33;102285.03;5073933;28;20150;-70
2023/10/16 12:46:36;;;;;;;2.08;0.20;;;;;;;23.35;35.59;102285.88;5072109;28;20423;-70
2023/10/16 12:49:06;;;;;;;0.50;0.40;;;;;;;22.77;36.36;102284.56;5082871;28;20486;-70
2023/10/16 12:51:33;;;;;;;2.50;0.38;;;;;;;22.61;34.99;102278.94;5078642;28;20085;-70
2023/10/16 12:54:03;;;;;;;1.65;0.20;;;;;;;22.13;35.38;102278.03;5077420;28;20047;-70
2023/10/16 12:56:28;;;;;;;3.13;0.80;;;;;;;22.79;35.84;102285.41;5072294;28;20037;-71
2023/10/16 12:58:54;;;;;;;4.60;0.35;;;;;;;22.80;35.69;102283.59;5070516;28;20365;-70
2023/10/16 13:01:21;;;;;;;0.47;0.45;;;;;;;22.69;35.64;102281.34;5073956;28;20027;-70
2023/10/16 13:03:47;;;;;;;0.43;0.20;;;;;;;22.67;35.83;102277.88;5073045;28;20392;-70
2023/10/16 13:06:14;;;;;;;1.40;0.47;;;;;;;23.01;34.67;102281.88;5079989;28;20024;-70
2023/10/16 13:08:41;;;;;;;1.48;0.20;;;;;;;22.88;35.70;102287.69;5070719;28;20484;-70
2023/10/16 13:11:07;;;;;;;0.85;0.32;;;;;;;22.85;35.14;102270.97;5080776;28;20013;-70
2023/10/16 13:13:33;;;;;;;2.03;0.40;;;;;;;23.19;35.38;102275.84;5082806;28;20021;-71
2023/10/16 13:16:00;;;;;;;1.08;0.32;;;;;;;23.11;36.34;102269.03;5091105;28;20517;-72
2023/10/16 13:18:29;;;;;;;0.93;0.20;;;;;;;23.24;35.98;102272.13;5088253;28;20380;-71
2023/10/16 13:21:12;;;;;;;2.92;0.47;;;;;;;22.79;35.95;102269.41;5069562;28;20506;-73
2023/10/16 13:23:39;;;;;;;1.05;0.47;;;;;;;23.13;35.58;102276.06;5073638;28;20019;-72
2023/10/16 13:26:07;;;;;;;2.50;0.40;;;;;;;23.12;34.92;102271.69;5075810;28;20024;-72